ADDS METAR Data INFO
IDs: Format: Raw Decoded Include TAF

Data at: 1333 UTC 19 Jul 2018

KBAF 191253Z 20003KT 10SM CLR 18/12 A3011 RMK AO2 SLP195 T01830122
KBAF 191153Z 00000KT 10SM CLR 16/13 A3011 RMK AO2 SLP194 T01610128 10161 20111 51015
KBAF 191053Z 00000KT 10SM CLR 14/12 A3009 RMK AO2 SLP189 T01390122
KBAF 190953Z AUTO 36003KT 10SM CLR 12/11 A3008 RMK AO2 SLP186 T01170111
KBAF 190853Z AUTO 00000KT 10SM CLR 12/11 A3006 RMK AO2 SLP179 T01170111 53012
KBAF 190753Z AUTO 00000KT 10SM CLR 12/12 A3005 RMK AO2 SLP174 T01170117
KBAF 190653Z AUTO 00000KT 10SM CLR 13/12 A3004 RMK AO2 SLP171 T01280122
KBAF 190553Z AUTO 04005KT 10SM CLR 14/12 A3003 RMK AO2 SLP167 T01440122 10233 20139 53014
KBAF 190453Z AUTO 36006KT 10SM CLR 14/13 A3001 RMK AO2 SLP162 T01390128 402830139
KBAF 190353Z AUTO 02004KT 10SM CLR 15/13 A3000 RMK AO2 SLP157 T01500133
KBAF 190253Z AUTO 00000KT 10SM CLR 16/14 A2999 RMK AO2 SLP154 T01560144 51020
KBAF 190153Z 00000KT 10SM CLR 17/14 A2997 RMK AO2 SLP148 T01720139
KBAF 190053Z 00000KT 10SM CLR 19/14 A2995 RMK AO2 SLP139 T01890139
KBAF 182353Z 01005KT 10SM CLR 23/10 A2993 RMK AO2 SLP132 T02330100 10278 20233 53011
KBAF 182253Z 34009KT 10SM CLR 26/08 A2991 RMK AO2 SLP127 T02610083
KBAF 182153Z 35009KT 10SM CLR 27/09 A2990 RMK AO2 SLP123 T02670089
KBAF 182053Z 34013KT 10SM CLR 27/09 A2990 RMK AO2 SLP121 T02720089 52003
KBAF 181953Z 31010KT 10SM CLR 28/10 A2989 RMK AO2 SLP118 T02780100
KBAF 181853Z 34011KT 10SM CLR 28/10 A2989 RMK AO2 SLP119 T02780100
KBAF 181753Z 31013KT 10SM FEW060 28/11 A2989 RMK AO2 SLP117 T02780106 10283 20211 55005
KBAF 181653Z 34007KT 10SM FEW041 SCT055 26/14 A2988 RMK AO2 SLP118 T02560144
KBAF 181553Z 04007KT 360V070 10SM CLR 26/17 A2989 RMK AO2 SLP120 T02560167
KBAF 181453Z 04007KT 10SM CLR 24/17 A2990 RMK AO2 SLP123 T02440167 50004
KBAF 181353Z 35010KT 10SM CLR 24/17 A2990 RMK AO2 SLP124 T02390167
KBAF 181253Z VRB05KT 10SM SCT085 23/18 A2990 RMK AO2 SLP123 T02280178
KBAF 181153Z 01008KT 10SM CLR 21/17 A2989 RMK AO2 SLP119 70244 T02110172 10211 20178 51019
KBAF 181053Z 00000KT 10SM CLR 19/18 A2988 RMK AO2 SLP116 T01940178
KBAF 180953Z AUTO 36005KT 10SM OVC070 18/18 A2985 RMK AO2 SLP108 T01830178
KBAF 180853Z AUTO 07003KT 10SM CLR 18/18 A2983 RMK AO2 SLP101 T01780178 53017
KBAF 180753Z AUTO 33003KT 10SM OVC100 20/18 A2981 RMK AO2 SLP093 T02000183
KBAF 180653Z AUTO 03005KT 10SM BKN110 21/18 A2979 RMK AO2 SLP085 T02060178
KBAF 180553Z AUTO 36005KT 10SM FEW110 21/18 A2978 RMK AO2 SLP083 60000 T02110183 10217 20211 56008
KBAF 180453Z AUTO 00000KT 10SM CLR 21/21 A2979 RMK AO2 SLP083 T02110206 403220211
KBAF 180353Z AUTO 16007KT 10SM CLR 21/21 A2980 RMK AO2 SLP088 T02110211
KBAF 180344Z AUTO 18004KT 10SM SCT003 21/21 A2980 RMK AO2 T02110211
KBAF 180308Z AUTO 00000KT 10SM BKN003 21/21 A2980 RMK AO2 T02110211
KBAF 180253Z AUTO 20003KT 10SM FEW003 21/21 A2981 RMK AO2 SLP090 60000 T02110211 56002
KBAF 180244Z AUTO 20004KT 10SM FEW003 21/21 A2981 RMK AO2 T02110211
KBAF 180201Z 17004KT 10SM BKN004 BKN030 21/21 A2981 RMK AO2 T02110211
KBAF 180153Z 17005KT 10SM SCT004 BKN031 OVC095 21/21 A2981 RMK AO2 SLP092 T02110211